Time;durP1;ratioP1;P1;durP2;ratioP2;P2;SDS_P1;SDS_P2;PMS_P1;PMS_P2;Temp;Humidity;BMP_temperature;BMP_pressure;BME280_temperature;BME280_humidity;BME280_pressure;Samples;Min_cycle;Max_cycle;Signal;HPM_P1;HPM_P2
2021/07/04 00:02:21;;;;;;;0.40;0.40;;;17.80;99.90;;;;;;4897180;29;20243;-78
2021/07/04 00:04:49;;;;;;;0.30;0.30;;;17.90;99.90;;;;;;4896964;29;20207;-77
2021/07/04 00:07:18;;;;;;;0.30;0.30;;;18.00;99.90;;;;;;4896657;29;20239;-77
2021/07/04 00:09:46;;;;;;;0.40;0.40;;;18.00;99.90;;;;;;4896830;29;20207;-77
2021/07/04 00:12:14;;;;;;;0.30;0.30;;;18.00;99.90;;;;;;4896837;29;20263;-77
2021/07/04 00:14:42;;;;;;;0.40;0.40;;;18.10;99.90;;;;;;4897048;29;20281;-77
2021/07/04 00:17:10;;;;;;;0.40;0.40;;;17.80;99.90;;;;;;4896763;29;20656;-77
2021/07/04 00:19:37;;;;;;;0.30;0.30;;;18.10;99.90;;;;;;4900716;29;20211;-77
2021/07/04 00:22:05;;;;;;;0.30;0.30;;;18.10;99.90;;;;;;4900657;29;20744;-77
2021/07/04 00:24:34;;;;;;;0.30;0.30;;;18.20;99.90;;;;;;4900692;29;20266;-77
2021/07/04 00:27:03;;;;;;;0.30;0.30;;;17.90;99.90;;;;;;4900235;29;20231;-77
2021/07/04 00:29:30;;;;;;;0.40;0.40;;;18.00;99.90;;;;;;4900804;29;20206;-77
2021/07/04 00:31:58;;;;;;;0.30;0.30;;;17.80;99.90;;;;;;4900741;29;20266;-77
2021/07/04 00:34:27;;;;;;;0.38;0.38;;;;;;;;;;4900511;29;20207;-77
2021/07/04 00:36:54;;;;;;;0.30;0.30;;;18.00;99.90;;;;;;4900148;29;20219;-77
2021/07/04 00:39:22;;;;;;;0.30;0.30;;;17.90;99.90;;;;;;4900268;29;20266;-77
2021/07/04 00:41:51;;;;;;;0.30;0.30;;;18.00;99.90;;;;;;4900575;29;20229;-77
2021/07/04 00:44:19;;;;;;;0.30;0.30;;;18.00;99.90;;;;;;4900303;29;20203;-77
2021/07/04 00:46:47;;;;;;;0.30;0.30;;;18.00;99.90;;;;;;4900211;29;20235;-77
2021/07/04 00:49:15;;;;;;;0.40;0.40;;;17.80;99.90;;;;;;4900283;29;20215;-77
2021/07/04 00:51:43;;;;;;;0.40;0.40;;;18.10;99.90;;;;;;4900171;29;20211;-77
2021/07/04 00:54:11;;;;;;;0.30;0.30;;;17.70;99.90;;;;;;4900047;29;20235;-77
2021/07/04 00:56:39;;;;;;;0.30;0.30;;;17.80;99.90;;;;;;4899850;29;20227;-77
2021/07/04 00:59:08;;;;;;;0.30;0.30;;;17.80;99.90;;;;;;4900314;29;20238;-77
2021/07/04 01:01:37;;;;;;;0.30;0.30;;;17.80;99.90;;;;;;4900149;29;20261;-77
2021/07/04 01:04:05;;;;;;;0.40;0.40;;;18.30;99.90;;;;;;4900025;29;20208;-77
2021/07/04 01:06:33;;;;;;;0.30;0.30;;;17.90;99.90;;;;;;4899295;29;20287;-77
2021/07/04 01:09:01;;;;;;;0.30;0.30;;;18.10;99.90;;;;;;4899730;29;20208;-77
2021/07/04 01:11:29;;;;;;;0.30;0.30;;;17.70;99.90;;;;;;4900049;29;20203;-77
2021/07/04 01:13:57;;;;;;;0.30;0.30;;;17.70;99.90;;;;;;4900028;29;20672;-77
2021/07/04 01:16:27;;;;;;;0.30;0.30;;;17.90;99.90;;;;;;4899497;29;20219;-76
2021/07/04 01:18:55;;;;;;;0.30;0.30;;;17.70;99.90;;;;;;4899644;29;20219;-77
2021/07/04 01:21:25;;;;;;;0.30;0.30;;;17.60;99.90;;;;;;4899571;29;20218;-77
2021/07/04 01:23:54;;;;;;;0.40;0.40;;;17.60;99.90;;;;;;4899768;29;20203;-77
2021/07/04 01:26:22;;;;;;;0.30;0.30;;;17.70;99.90;;;;;;4899086;29;20235;-77
2021/07/04 01:28:50;;;;;;;0.40;0.40;;;17.50;99.90;;;;;;4899383;29;20214;-77
2021/07/04 01:31:18;;;;;;;0.30;0.30;;;17.50;99.90;;;;;;4899542;29;20234;-77
2021/07/04 01:33:48;;;;;;;0.30;0.30;;;17.50;99.90;;;;;;4899627;29;20254;-77
2021/07/04 01:36:16;;;;;;;0.40;0.40;;;17.40;99.90;;;;;;4899568;29;20291;-77
2021/07/04 01:38:44;;;;;;;0.30;0.30;;;17.40;99.90;;;;;;4899796;29;20274;-77
2021/07/04 01:41:13;;;;;;;0.40;0.40;;;17.40;99.90;;;;;;4899824;29;20236;-77
2021/07/04 01:43:41;;;;;;;0.30;0.30;;;17.50;99.90;;;;;;4899331;29;20254;-77
2021/07/04 01:46:09;;;;;;;0.40;0.40;;;17.60;99.90;;;;;;4898958;29;20219;-77
2021/07/04 01:48:37;;;;;;;0.30;0.30;;;17.20;99.90;;;;;;4901625;29;20211;-77
2021/07/04 01:51:05;;;;;;;0.40;0.40;;;17.20;99.90;;;;;;4899561;29;20211;-77
2021/07/04 01:53:35;;;;;;;0.40;0.40;;;17.30;99.90;;;;;;4899005;29;20211;-77
2021/07/04 01:56:06;;;;;;;0.40;0.40;;;17.40;99.90;;;;;;4899026;29;20211;-77
2021/07/04 01:58:35;;;;;;;0.30;0.30;;;17.30;99.90;;;;;;4899167;29;20629;-77
2021/07/04 02:01:05;;;;;;;0.40;0.40;;;17.00;99.90;;;;;;4899143;29;20703;-77
2021/07/04 02:03:33;;;;;;;0.30;0.30;;;17.30;99.90;;;;;;4899265;29;20203;-77
2021/07/04 02:06:01;;;;;;;0.32;0.32;;;17.10;99.90;;;;;;4898950;29;20635;-77
2021/07/04 02:08:29;;;;;;;0.30;0.30;;;17.20;99.90;;;;;;4899256;29;20588;-77
2021/07/04 02:10:57;;;;;;;0.35;0.35;;;17.20;99.90;;;;;;4898867;29;20233;-77
2021/07/04 02:13:25;;;;;;;0.30;0.30;;;17.30;99.90;;;;;;4898844;29;20672;-76
2021/07/04 02:15:54;;;;;;;0.30;0.30;;;17.20;99.90;;;;;;4898597;29;20207;-77
2021/07/04 02:18:22;;;;;;;0.40;0.40;;;17.30;99.90;;;;;;4898789;29;20277;-77
2021/07/04 02:20:51;;;;;;;0.30;0.30;;;17.30;99.90;;;;;;4898599;29;20207;-77
2021/07/04 02:23:21;;;;;;;0.30;0.30;;;17.20;99.90;;;;;;4898601;29;20218;-77
2021/07/04 02:25:51;;;;;;;0.30;0.30;;;17.20;99.90;;;;;;4898146;29;20212;-76
2021/07/04 02:28:22;;;;;;;0.40;0.40;;;17.50;99.90;;;;;;4898264;29;20720;-77
2021/07/04 02:30:52;;;;;;;0.30;0.30;;;16.90;99.90;;;;;;4898533;29;20255;-77
2021/07/04 02:33:23;;;;;;;0.30;0.30;;;17.00;99.90;;;;;;4898382;29;20250;-77
2021/07/04 02:35:52;;;;;;;0.30;0.30;;;17.30;99.90;;;;;;4898135;29;20199;-77
2021/07/04 02:38:20;;;;;;;0.30;0.30;;;17.20;99.90;;;;;;4898171;29;20207;-77
2021/07/04 02:40:51;;;;;;;0.50;0.50;;;17.10;99.90;;;;;;4897814;29;20215;-77
2021/07/04 02:43:21;;;;;;;0.30;0.30;;;17.20;99.90;;;;;;4898076;29;20235;-76
2021/07/04 02:45:51;;;;;;;0.40;0.40;;;17.10;99.90;;;;;;4897903;29;20677;-77
2021/07/04 02:48:20;;;;;;;0.40;0.40;;;17.00;99.90;;;;;;4897948;29;20277;-77
2021/07/04 02:50:49;;;;;;;0.40;0.40;;;17.10;99.90;;;;;;4898450;29;20218;-77
2021/07/04 02:53:16;;;;;;;0.40;0.40;;;17.10;99.90;;;;;;4898236;29;20628;-77
2021/07/04 02:55:44;;;;;;;0.35;0.35;;;17.20;99.90;;;;;;4897983;29;20207;-77
2021/07/04 02:58:12;;;;;;;0.40;0.40;;;17.10;99.90;;;;;;4897912;29;20636;-77
2021/07/04 03:00:41;;;;;;;0.40;0.40;;;17.10;99.90;;;;;;4897924;29;20263;-77
2021/07/04 03:03:09;;;;;;;0.30;0.30;;;17.30;99.90;;;;;;4897723;29;20208;-77
2021/07/04 03:05:38;;;;;;;0.40;0.40;;;17.10;99.90;;;;;;4897444;29;20219;-77
2021/07/04 03:08:07;;;;;;;0.30;0.30;;;17.10;99.90;;;;;;4897554;29;20295;-77
2021/07/04 03:10:35;;;;;;;0.50;0.50;;;17.10;99.90;;;;;;4897659;29;20211;-77
2021/07/04 03:13:03;;;;;;;0.50;0.50;;;17.00;99.90;;;;;;4897575;29;20617;-77
2021/07/04 03:15:31;;;;;;;0.50;0.50;;;17.20;99.90;;;;;;4897342;29;20581;-76
2021/07/04 03:17:58;;;;;;;0.40;0.40;;;17.00;99.90;;;;;;4897917;29;20275;-77
2021/07/04 03:20:26;;;;;;;0.32;0.32;;;17.00;99.90;;;;;;4897670;29;20204;-77
2021/07/04 03:22:56;;;;;;;0.50;0.50;;;17.00;99.90;;;;;;4897611;29;20267;-77
2021/07/04 03:25:23;;;;;;;0.40;0.40;;;16.90;99.90;;;;;;4897395;29;20207;-76
2021/07/04 03:27:52;;;;;;;0.40;0.40;;;17.00;99.90;;;;;;4897380;29;20230;-77
2021/07/04 03:30:22;;;;;;;0.40;0.40;;;16.80;99.90;;;;;;4897363;29;20266;-77
2021/07/04 03:32:52;;;;;;;0.45;0.45;;;17.40;99.90;;;;;;4897616;29;20207;-77
2021/07/04 03:35:20;;;;;;;0.40;0.40;;;17.00;99.90;;;;;;4897190;29;20634;-76
2021/07/04 03:37:48;;;;;;;0.40;0.40;;;16.90;99.90;;;;;;4897386;29;20267;-77
2021/07/04 03:40:19;;;;;;;0.40;0.40;;;17.10;99.90;;;;;;4897279;29;20207;-76
2021/07/04 03:42:47;;;;;;;0.40;0.40;;;17.00;99.90;;;;;;4897185;29;20207;-77
2021/07/04 03:45:15;;;;;;;0.40;0.40;;;17.10;99.90;;;;;;4896978;29;20314;-77
2021/07/04 03:47:43;;;;;;;0.30;0.30;;;17.10;99.90;;;;;;4896922;29;20279;-77
2021/07/04 03:50:12;;;;;;;0.40;0.40;;;16.90;99.90;;;;;;4897180;29;20287;-76
2021/07/04 03:52:42;;;;;;;0.50;0.50;;;16.90;99.90;;;;;;4897157;29;20240;-77
2021/07/04 03:55:12;;;;;;;0.30;0.30;;;16.90;99.90;;;;;;4897021;29;20234;-77
2021/07/04 03:57:41;;;;;;;0.40;0.40;;;16.90;99.90;;;;;;4897203;29;20247;-76
2021/07/04 04:00:10;;;;;;;0.30;0.30;;;17.00;99.90;;;;;;4897187;29;20239;-77
2021/07/04 04:02:38;;;;;;;0.47;0.47;;;17.00;99.90;;;;;;4896955;29;20236;-77
2021/07/04 04:05:08;;;;;;;0.40;0.40;;;17.10;99.90;;;;;;4896999;29;20258;-77
2021/07/04 04:07:36;;;;;;;0.40;0.40;;;17.10;99.90;;;;;;4900105;29;20267;-80
2021/07/04 04:10:05;;;;;;;0.40;0.40;;;17.20;99.90;;;;;;4900985;29;20211;-80
2021/07/04 04:12:33;;;;;;;0.40;0.40;;;17.20;99.90;;;;;;4901421;29;20207;-80
2021/07/04 04:15:03;;;;;;;0.50;0.50;;;17.30;99.90;;;;;;4901600;29;20207;-80
2021/07/04 04:17:31;;;;;;;0.30;0.30;;;17.40;99.90;;;;;;4901021;29;20712;-80
2021/07/04 04:19:59;;;;;;;0.30;0.30;;;17.50;99.90;;;;;;4901727;29;20259;-80
2021/07/04 04:22:27;;;;;;;0.40;0.40;;;17.50;99.90;;;;;;4901551;29;20235;-80
2021/07/04 04:24:55;;;;;;;0.32;0.32;;;17.50;99.90;;;;;;4901508;29;20333;-80
2021/07/04 04:27:23;;;;;;;0.40;0.40;;;17.60;99.90;;;;;;4901795;29;20299;-78
2021/07/04 04:29:51;;;;;;;0.30;0.30;;;17.70;99.90;;;;;;4903608;29;20211;-77
2021/07/04 04:32:20;;;;;;;0.40;0.40;;;17.70;99.90;;;;;;4901450;29;20264;-78
2021/07/04 04:34:48;;;;;;;0.30;0.30;;;17.80;99.90;;;;;;4899487;29;20208;-77
2021/07/04 04:37:16;;;;;;;0.40;0.40;;;17.90;99.90;;;;;;4899713;29;20231;-76
2021/07/04 04:39:44;;;;;;;0.30;0.30;;;;;;;;;;4900091;29;20220;-80
2021/07/04 04:42:12;;;;;;;0.30;0.30;;;18.70;99.90;;;;;;4900072;29;20282;-79
2021/07/04 04:44:41;;;;;;;0.38;0.38;;;18.10;99.90;;;;;;4900579;29;20207;-80
2021/07/04 04:47:09;;;;;;;0.30;0.30;;;18.30;99.90;;;;;;4899279;29;20279;-80
2021/07/04 04:49:38;;;;;;;0.35;0.35;;;18.20;99.90;;;;;;4899401;29;20645;-79
2021/07/04 04:52:06;;;;;;;0.30;0.30;;;18.20;99.90;;;;;;4899671;29;20252;-79
2021/07/04 04:54:34;;;;;;;0.30;0.30;;;18.20;99.90;;;;;;4899772;29;20203;-78
2021/07/04 04:57:06;;;;;;;0.40;0.40;;;18.10;99.90;;;;;;4899780;29;20776;-80
2021/07/04 04:59:35;;;;;;;0.30;0.30;;;18.10;99.90;;;;;;4899844;29;20694;-80
2021/07/04 05:02:05;;;;;;;0.30;0.30;;;18.00;99.90;;;;;;4900064;29;20219;-80
2021/07/04 05:04:33;;;;;;;0.30;0.30;;;18.00;99.90;;;;;;4901977;29;20495;-79
2021/07/04 05:07:03;;;;;;;0.30;0.30;;;18.10;99.90;;;;;;4903114;29;20376;-79
2021/07/04 05:09:30;;;;;;;0.40;0.40;;;18.10;99.90;;;;;;4903697;29;20275;-80
2021/07/04 05:11:58;;;;;;;0.30;0.30;;;18.10;99.90;;;;;;4900735;29;20665;-80
2021/07/04 05:14:26;;;;;;;0.40;0.40;;;18.00;99.90;;;;;;4903634;29;20196;-80
2021/07/04 05:16:54;;;;;;;0.30;0.30;;;18.10;99.90;;;;;;4902574;29;20275;-80
2021/07/04 05:19:22;;;;;;;0.30;0.30;;;18.20;99.90;;;;;;4904125;29;20207;-80
2021/07/04 05:21:50;;;;;;;0.30;0.30;;;18.20;99.90;;;;;;4903475;29;20200;-80
2021/07/04 05:24:20;;;;;;;0.30;0.30;;;18.20;99.90;;;;;;4901327;29;20228;-79
2021/07/04 05:26:47;;;;;;;0.30;0.30;;;18.10;99.90;;;;;;4903588;29;20600;-79
2021/07/04 05:29:15;;;;;;;0.30;0.30;;;18.20;99.90;;;;;;4902171;29;20216;-77
2021/07/04 05:31:43;;;;;;;0.30;0.30;;;18.00;99.90;;;;;;4902543;29;20262;-77
2021/07/04 05:34:11;;;;;;;0.40;0.40;;;18.20;99.90;;;;;;4902535;29;20203;-78
2021/07/04 05:36:39;;;;;;;0.30;0.30;;;18.30;99.90;;;;;;4899655;29;20287;-80
2021/07/04 05:39:07;;;;;;;0.30;0.30;;;18.40;99.90;;;;;;4901836;29;20233;-80
2021/07/04 05:41:36;;;;;;;0.40;0.40;;;18.50;99.90;;;;;;4902477;29;20251;-80
2021/07/04 05:44:05;;;;;;;0.30;0.30;;;18.60;99.90;;;;;;4900228;29;20259;-80
2021/07/04 05:46:34;;;;;;;0.40;0.40;;;18.70;99.90;;;;;;4902056;29;20219;-79
2021/07/04 05:49:03;;;;;;;0.30;0.30;;;18.80;99.90;;;;;;4900460;29;20228;-79
2021/07/04 05:51:31;;;;;;;0.30;0.30;;;18.80;99.90;;;;;;4902911;29;20199;-80
2021/07/04 05:53:59;;;;;;;0.30;0.30;;;18.90;99.90;;;;;;4902299;29;20200;-79
2021/07/04 05:56:26;;;;;;;0.30;0.30;;;18.90;99.90;;;;;;4902500;29;20219;-80
2021/07/04 05:58:56;;;;;;;0.32;0.32;;;18.90;99.90;;;;;;4902502;29;20196;-77
2021/07/04 06:01:25;;;;;;;0.40;0.40;;;19.00;99.90;;;;;;4903389;29;20255;-78
2021/07/04 06:03:53;;;;;;;0.20;0.20;;;19.20;99.90;;;;;;4902870;29;20661;-80
2021/07/04 06:06:21;;;;;;;0.30;0.30;;;19.30;99.90;;;;;;4904665;29;21378;-76
2021/07/04 06:08:48;;;;;;;0.30;0.30;;;19.30;99.90;;;;;;4902132;29;20227;-77
2021/07/04 06:11:17;;;;;;;0.30;0.30;;;;;;;;;;4904647;29;20203;-80
2021/07/04 06:13:45;;;;;;;0.30;0.30;;;19.40;99.90;;;;;;4906751;29;20204;-76
2021/07/04 06:16:14;;;;;;;0.20;0.20;;;19.50;99.90;;;;;;4903871;29;20216;-79
2021/07/04 06:18:42;;;;;;;0.35;0.35;;;19.50;99.90;;;;;;4905337;29;20211;-79
2021/07/04 06:21:10;;;;;;;0.30;0.30;;;19.60;99.90;;;;;;4906046;29;20706;-79
2021/07/04 06:23:38;;;;;;;0.20;0.20;;;19.70;99.90;;;;;;4902088;29;20203;-80
2021/07/04 06:26:06;;;;;;;0.20;0.20;;;20.00;99.90;;;;;;4902736;29;20207;-79
2021/07/04 06:28:34;;;;;;;0.30;0.30;;;19.90;99.90;;;;;;4902283;29;20262;-80
2021/07/04 06:31:02;;;;;;;0.20;0.20;;;20.00;99.90;;;;;;4902293;29;20259;-80
2021/07/04 06:33:31;;;;;;;0.20;0.20;;;20.20;99.90;;;;;;4901381;29;20203;-80
2021/07/04 06:35:59;;;;;;;0.30;0.30;;;20.50;99.90;;;;;;4899896;29;20232;-78
2021/07/04 06:38:27;;;;;;;0.20;0.20;;;20.40;99.90;;;;;;4902676;29;20247;-79
2021/07/04 06:40:55;;;;;;;0.20;0.20;;;20.40;99.90;;;;;;4902608;29;20207;-78
2021/07/04 06:43:23;;;;;;;0.20;0.20;;;20.50;99.90;;;;;;4902234;29;20199;-80
2021/07/04 06:45:52;;;;;;;0.20;0.20;;;20.50;99.90;;;;;;4901661;29;20203;-80
2021/07/04 06:48:20;;;;;;;0.20;0.20;;;20.50;99.90;;;;;;4900381;29;20259;-79
2021/07/04 06:50:50;;;;;;;0.20;0.20;;;20.70;99.90;;;;;;4901365;29;20230;-74
2021/07/04 06:53:18;;;;;;;0.30;0.30;;;20.90;99.90;;;;;;4897760;29;20203;-74
2021/07/04 06:55:46;;;;;;;0.30;0.30;;;;;;;;;;4898684;29;20673;-78
2021/07/04 06:58:14;;;;;;;0.22;0.22;;;21.00;99.90;;;;;;4899425;29;20704;-73
2021/07/04 07:00:42;;;;;;;0.20;0.20;;;21.10;99.90;;;;;;4898211;29;20199;-74
2021/07/04 07:03:10;;;;;;;0.20;0.20;;;21.30;99.90;;;;;;4898932;29;20540;-74
2021/07/04 07:05:38;;;;;;;0.20;0.20;;;21.40;99.90;;;;;;4899807;29;20207;-75
2021/07/04 07:08:07;;;;;;;0.20;0.20;;;21.40;99.90;;;;;;4899467;29;20295;-74
2021/07/04 07:10:36;;;;;;;0.20;0.20;;;21.50;99.90;;;;;;4898440;29;20223;-75
2021/07/04 07:13:04;;;;;;;0.20;0.20;;;21.60;99.90;;;;;;4898420;29;20228;-75
2021/07/04 07:15:32;;;;;;;0.20;0.20;;;21.60;99.90;;;;;;4898307;29;20199;-76
2021/07/04 07:18:00;;;;;;;0.20;0.20;;;21.60;99.90;;;;;;4897966;29;20637;-75
2021/07/04 07:20:27;;;;;;;0.30;0.30;;;21.60;99.90;;;;;;4898241;29;20203;-76
2021/07/04 07:22:55;;;;;;;0.20;0.20;;;21.70;99.90;;;;;;4897945;29;20204;-76
2021/07/04 07:25:24;;;;;;;0.20;0.20;;;21.80;99.90;;;;;;4898161;29;20255;-76
2021/07/04 07:27:52;;;;;;;0.30;0.30;;;21.90;99.90;;;;;;4897813;29;20219;-75
2021/07/04 07:30:22;;;;;;;0.10;0.10;;;22.00;99.90;;;;;;4898330;29;20267;-75
2021/07/04 07:32:50;;;;;;;0.20;0.20;;;22.10;99.90;;;;;;4895475;29;20195;-75
2021/07/04 07:35:19;;;;;;;0.20;0.20;;;22.20;99.90;;;;;;4897805;29;20729;-75
2021/07/04 07:37:48;;;;;;;0.20;0.20;;;22.30;99.90;;;;;;4898223;29;20218;-76
2021/07/04 07:40:16;;;;;;;0.20;0.20;;;22.40;99.90;;;;;;4898260;29;20196;-76
2021/07/04 07:42:46;;;;;;;0.20;0.20;;;22.50;99.90;;;;;;4897421;29;20740;-75
2021/07/04 07:45:14;;;;;;;0.20;0.20;;;22.60;99.90;;;;;;4896851;29;20303;-76
2021/07/04 07:47:43;;;;;;;0.22;0.22;;;22.70;99.90;;;;;;4897905;29;20227;-77
2021/07/04 07:50:12;;;;;;;0.20;0.20;;;22.80;99.90;;;;;;4887701;29;20689;-77
2021/07/04 07:52:39;;;;;;;0.20;0.20;;;22.80;99.50;;;;;;4897846;29;20561;-76
2021/07/04 07:55:09;;;;;;;0.20;0.20;;;23.00;99.40;;;;;;4896861;29;20285;-76
2021/07/04 07:57:37;;;;;;;0.20;0.20;;;23.00;98.30;;;;;;4896015;29;20724;-74
2021/07/04 08:00:11;;;;;;;0.20;0.20;;;23.20;98.40;;;;;;4896265;29;20724;-76
2021/07/04 08:02:41;;;;;;;0.20;0.20;;;23.30;98.10;;;;;;4894380;29;20736;-76
2021/07/04 08:05:10;;;;;;;0.20;0.20;;;23.40;97.80;;;;;;4896451;29;20251;-76
2021/07/04 08:07:40;;;;;;;0.20;0.20;;;23.50;96.50;;;;;;4894505;29;20227;-76
2021/07/04 08:10:10;;;;;;;0.20;0.20;;;23.60;97.10;;;;;;4896884;29;20223;-76
2021/07/04 08:12:39;;;;;;;0.10;0.10;;;23.80;96.30;;;;;;4896359;29;20580;-74
2021/07/04 08:15:09;;;;;;;0.20;0.20;;;23.90;94.30;;;;;;4896644;29;20203;-77
2021/07/04 08:17:37;;;;;;;0.10;0.10;;;24.00;93.10;;;;;;4897757;29;20303;-76
2021/07/04 08:20:07;;;;;;;0.20;0.20;;;24.10;93.20;;;;;;4896539;29;20287;-74
2021/07/04 08:22:35;;;;;;;0.10;0.10;;;24.10;92.90;;;;;;4894839;29;20282;-77
2021/07/04 08:25:04;;;;;;;0.10;0.10;;;24.20;92.10;;;;;;4896902;29;20199;-77
2021/07/04 08:27:32;;;;;;;0.10;0.10;;;24.20;89.50;;;;;;4894169;29;20214;-75
2021/07/04 08:30:00;;;;;;;0.20;0.20;;;24.20;89.00;;;;;;4899898;29;20681;-75
2021/07/04 08:32:29;;;;;;;0.20;0.20;;;24.30;89.00;;;;;;4897633;29;20661;-75
2021/07/04 08:34:57;;;;;;;0.10;0.10;;;24.30;89.70;;;;;;4894374;29;20199;-75
2021/07/04 08:37:25;;;;;;;0.20;0.20;;;24.50;90.80;;;;;;4896965;29;20286;-74
2021/07/04 08:39:53;;;;;;;0.20;0.20;;;24.60;89.40;;;;;;4901224;29;20196;-74
2021/07/04 08:42:21;;;;;;;0.20;0.20;;;24.60;90.50;;;;;;4901963;29;20741;-74
2021/07/04 08:44:49;;;;;;;0.10;0.10;;;24.70;90.10;;;;;;4900321;29;20249;-73
2021/07/04 08:47:18;;;;;;;0.20;0.20;;;24.70;87.40;;;;;;4901265;29;20229;-75
2021/07/04 08:49:49;;;;;;;0.10;0.10;;;24.80;87.70;;;;;;4901546;29;20199;-74
2021/07/04 08:52:17;;;;;;;0.20;0.20;;;24.70;85.90;;;;;;4900696;29;20203;-73
2021/07/04 08:54:46;;;;;;;0.17;0.17;;;24.80;87.70;;;;;;4899984;29;20656;-74
2021/07/04 08:57:16;;;;;;;0.20;0.20;;;;;;;;;;4902017;29;20243;-78
2021/07/04 08:59:46;;;;;;;0.10;0.10;;;24.80;83.90;;;;;;4901778;29;20207;-77
2021/07/04 09:02:27;;;;;;;0.20;0.20;;;24.80;83.90;;;;;;4905923;29;20207;-78
2021/07/04 09:05:02;;;;;;;0.10;0.10;;;24.80;82.50;;;;;;4907039;29;20203;-77
2021/07/04 09:07:31;;;;;;;0.10;0.10;;;24.80;79.00;;;;;;4907096;29;20230;-77
2021/07/04 09:10:02;;;;;;;0.10;0.10;;;24.80;75.30;;;;;;4904718;29;20208;-76
2021/07/04 09:12:37;;;;;;;0.20;0.20;;;24.80;87.20;;;;;;4905525;29;20204;-77
2021/07/04 09:15:16;;;;;;;0.10;0.10;;;24.80;79.30;;;;;;4907241;29;20202;-77
2021/07/04 09:17:48;;;;;;;0.10;0.10;;;25.00;78.80;;;;;;4905156;29;20639;-77
2021/07/04 09:20:20;;;;;;;0.10;0.10;;;25.10;75.40;;;;;;4900177;29;20207;-76
2021/07/04 09:22:51;;;;;;;0.10;0.10;;;25.10;75.80;;;;;;4899952;29;20203;-76
2021/07/04 09:25:21;;;;;;;0.10;0.10;;;25.00;86.70;;;;;;4899749;29;20264;-76
2021/07/04 09:28:06;;;;;;;0.10;0.10;;;25.10;78.50;;;;;;4901065;29;20271;-77
2021/07/04 09:30:37;;;;;;;0.20;0.20;;;25.00;74.00;;;;;;4897635;29;20693;-77
2021/07/04 09:33:13;;;;;;;0.10;0.10;;;25.10;73.80;;;;;;4899758;29;20252;-77
2021/07/04 09:35:52;;;;;;;0.10;0.10;;;25.10;74.30;;;;;;4897804;29;20206;-77
2021/07/04 09:38:21;;;;;;;0.10;0.10;;;25.10;68.60;;;;;;4898277;29;20239;-77
2021/07/04 09:40:50;;;;;;;0.10;0.10;;;25.20;70.70;;;;;;4900428;29;20565;-77
2021/07/04 09:43:19;;;;;;;0.10;0.10;;;25.10;72.40;;;;;;4897804;29;20661;-77
2021/07/04 09:45:50;;;;;;;0.17;0.17;;;25.10;69.30;;;;;;4900419;29;20203;-77
2021/07/04 09:48:20;;;;;;;0.10;0.10;;;25.10;69.50;;;;;;4900576;29;20223;-76
2021/07/04 09:50:51;;;;;;;0.10;0.10;;;25.20;76.10;;;;;;4900294;29;20275;-75
2021/07/04 09:53:21;;;;;;;0.10;0.10;;;25.10;68.10;;;;;;4900372;29;20203;-77
2021/07/04 09:55:51;;;;;;;0.10;0.10;;;25.10;70.90;;;;;;4900565;29;20203;-76
2021/07/04 09:58:21;;;;;;;0.10;0.10;;;25.20;67.60;;;;;;4900528;29;20231;-77
2021/07/04 10:00:49;;;;;;;0.20;0.20;;;25.30;76.60;;;;;;4901519;29;20203;-76
2021/07/04 10:03:18;;;;;;;0.10;0.10;;;25.20;75.40;;;;;;4900866;29;20230;-77
2021/07/04 10:06:08;;;;;;;0.10;0.10;;;25.20;76.20;;;;;;4900677;29;20255;-77
2021/07/04 10:08:37;;;;;;;0.10;0.10;;;25.20;75.60;;;;;;4899360;29;20254;-77
2021/07/04 10:11:06;;;;;;;0.10;0.10;;;26.40;75.50;;;;;;4897358;29;20271;-77
2021/07/04 10:13:37;;;;;;;0.15;0.15;;;25.20;72.40;;;;;;4898731;29;20211;-76
2021/07/04 10:16:06;;;;;;;0.10;0.10;;;25.30;78.50;;;;;;4898444;29;20215;-77
2021/07/04 10:18:36;;;;;;;0.10;0.10;;;25.30;69.60;;;;;;4898178;29;20199;-76
2021/07/04 10:21:07;;;;;;;0.13;0.13;;;25.30;67.70;;;;;;4898879;29;20207;-76
2021/07/04 10:23:35;;;;;;;0.10;0.10;;;25.30;67.30;;;;;;4898657;29;20211;-76
2021/07/04 10:26:04;;;;;;;0.10;0.10;;;25.20;77.10;;;;;;4898199;29;20618;-77
2021/07/04 10:28:36;;;;;;;0.10;0.10;;;25.30;68.90;;;;;;4898354;29;20265;-77
2021/07/04 10:31:10;;;;;;;0.10;0.10;;;25.40;67.80;;;;;;4898285;29;20647;-76
2021/07/04 10:33:38;;;;;;;0.20;0.20;;;25.50;72.30;;;;;;4898714;29;20252;-76
2021/07/04 10:36:15;;;;;;;0.10;0.10;;;25.30;75.10;;;;;;4897960;29;20337;-77
2021/07/04 10:38:46;;;;;;;0.10;0.10;;;25.50;66.40;;;;;;4898107;29;20251;-76
2021/07/04 10:41:20;;;;;;;0.10;0.10;;;25.50;66.10;;;;;;4897935;29;20195;-77
2021/07/04 10:43:51;;;;;;;0.10;0.10;;;25.50;67.60;;;;;;4897601;29;20579;-77
2021/07/04 10:46:19;;;;;;;0.10;0.10;;;25.50;68.20;;;;;;4897438;29;20219;-77
2021/07/04 10:48:57;;;;;;;0.10;0.10;;;25.60;67.20;;;;;;4897619;29;20610;-77
2021/07/04 10:51:27;;;;;;;0.15;0.15;;;25.60;67.10;;;;;;4897671;29;20700;-77
2021/07/04 10:53:56;;;;;;;0.10;0.10;;;25.70;67.10;;;;;;4897531;29;20741;-77
2021/07/04 10:56:40;;;;;;;0.10;0.10;;;25.90;67.50;;;;;;4897248;29;20788;-77
2021/07/04 10:59:10;;;;;;;0.10;0.10;;;26.00;69.00;;;;;;4896959;29;20251;-76
2021/07/04 11:01:52;;;;;;;0.20;0.20;;;26.00;69.50;;;;;;4896969;29;20199;-77
2021/07/04 11:04:52;;;;;;;0.10;0.10;;;26.00;68.60;;;;;;4895773;29;20200;-77
2021/07/04 11:07:21;;;;;;;0.10;0.10;;;26.00;65.80;;;;;;4894974;29;20700;-76
2021/07/04 11:10:21;;;;;;;0.20;0.20;;;26.20;69.40;;;;;;4897187;29;20200;-76
2021/07/04 11:12:50;;;;;;;0.10;0.10;;;26.30;65.70;;;;;;4896405;29;20267;-77
2021/07/04 11:15:29;;;;;;;0.10;0.10;;;26.30;69.20;;;;;;4897012;29;20199;-76
2021/07/04 11:18:08;;;;;;;0.10;0.10;;;26.30;70.00;;;;;;4895068;29;20219;-77
2021/07/04 11:20:58;;;;;;;0.10;0.10;;;26.30;70.80;;;;;;4891552;29;20207;-77
2021/07/04 11:23:27;;;;;;;0.10;0.10;;;26.30;72.40;;;;;;4897188;29;20263;-77
2021/07/04 11:25:57;;;;;;;0.10;0.10;;;26.20;67.70;;;;;;4896853;29;20207;-77
2021/07/04 11:28:27;;;;;;;0.10;0.10;;;26.20;68.40;;;;;;4897267;29;20251;-77
2021/07/04 11:31:22;;;;;;;0.10;0.10;;;26.50;80.40;;;;;;4896717;29;20334;-77
2021/07/04 11:33:51;;;;;;;0.10;0.10;;;26.40;70.50;;;;;;4895640;29;20199;-77
2021/07/04 11:36:23;;;;;;;0.10;0.10;;;26.50;63.50;;;;;;4896659;29;20267;-77
2021/07/04 11:38:54;;;;;;;0.10;0.10;;;26.60;63.90;;;;;;4896905;29;20255;-77
2021/07/04 11:41:25;;;;;;;0.10;0.10;;;26.60;70.90;;;;;;4896850;29;20203;-78
2021/07/04 11:43:55;;;;;;;0.10;0.10;;;26.80;62.60;;;;;;4896857;29;20262;-77
2021/07/04 11:46:25;;;;;;;0.10;0.10;;;26.90;68.30;;;;;;4896296;29;20365;-77
2021/07/04 11:48:57;;;;;;;0.10;0.10;;;27.20;70.80;;;;;;4896274;29;20204;-76
2021/07/04 11:51:31;;;;;;;0.10;0.10;;;27.40;66.40;;;;;;4896888;29;20215;-77
2021/07/04 11:54:03;;;;;;;0.10;0.10;;;27.60;68.10;;;;;;4896767;29;20258;-77
2021/07/04 11:56:32;;;;;;;0.10;0.10;;;27.40;67.90;;;;;;4893953;29;20462;-78
2021/07/04 11:59:08;;;;;;;0.10;0.10;;;27.40;65.80;;;;;;4896867;29;20196;-75
2021/07/04 12:01:50;;;;;;;0.10;0.10;;;27.50;63.10;;;;;;4894594;29;20251;-77
2021/07/04 12:04:20;;;;;;;0.10;0.10;;;27.40;60.70;;;;;;4896768;29;20204;-76
2021/07/04 12:06:56;;;;;;;0.10;0.10;;;27.40;61.00;;;;;;4896234;29;20235;-75
2021/07/04 12:09:48;;;;;;;0.10;0.10;;;;;;;;;;4895514;29;20665;-77
2021/07/04 12:12:23;;;;;;;0.10;0.10;;;27.70;62.00;;;;;;4887391;29;20223;-76
2021/07/04 12:14:52;;;;;;;0.10;0.10;;;28.00;59.40;;;;;;4900358;29;20747;-79
2021/07/04 12:17:29;;;;;;;0.10;0.10;;;28.30;58.50;;;;;;4900949;29;20675;-74
2021/07/04 12:20:04;;;;;;;0.10;0.10;;;28.70;58.00;;;;;;4900689;29;20235;-74
2021/07/04 12:22:34;;;;;;;0.10;0.10;;;29.10;58.30;;;;;;4900319;29;20606;-74
2021/07/04 12:25:12;;;;;;;0.10;0.10;;;29.60;57.40;;;;;;4900273;29;20573;-74
2021/07/04 12:27:45;;;;;;;0.10;0.10;;;30.00;55.60;;;;;;4900431;29;20222;-80
2021/07/04 12:30:17;;;;;;;0.10;0.10;;;30.30;55.30;;;;;;4900629;29;20258;-77
2021/07/04 12:32:47;;;;;;;0.10;0.10;;;30.50;53.50;;;;;;4900456;29;20219;-78
2021/07/04 12:35:25;;;;;;;0.10;0.10;;;30.50;52.80;;;;;;4900096;29;20673;-76
2021/07/04 12:37:55;;;;;;;0.10;0.10;;;30.70;52.90;;;;;;4901188;29;20632;-78
2021/07/04 12:40:25;;;;;;;0.10;0.10;;;31.10;52.40;;;;;;4901506;29;20247;-79
2021/07/04 12:42:55;;;;;;;0.10;0.10;;;31.20;51.60;;;;;;4902171;29;20211;-78
2021/07/04 12:45:25;;;;;;;0.10;0.10;;;31.00;52.40;;;;;;4903290;29;20263;-79
2021/07/04 12:48:02;;;;;;;0.10;0.10;;;30.80;51.60;;;;;;4900370;29;20219;-76
2021/07/04 12:50:58;;;;;;;0.10;0.10;;;31.30;52.10;;;;;;4884162;29;20295;-75
2021/07/04 12:53:37;;;;;;;0.10;0.10;;;31.50;52.10;;;;;;4889676;29;20230;-76
2021/07/04 12:56:05;;;;;;;0.10;0.10;;;30.60;71.40;;;;;;4901342;29;20240;-77
2021/07/04 12:58:39;;;;;;;0.10;0.10;;;30.60;54.30;;;;;;4902493;29;20268;-76
2021/07/04 13:01:18;;;;;;;0.10;0.10;;;30.20;55.20;;;;;;4901995;29;20200;-75
2021/07/04 13:03:55;;;;;;;0.10;0.10;;;29.80;56.00;;;;;;4900315;29;20199;-76